KCWC

Kickapoo Downtown Airport

Wichita Falls, Texas, USA
METAR KCWC 271155Z AUTO 11006KT 10SM CLR 23/19 A2984 RMK AO2 T02250190 10255 20222
Observed Flight Rules
May-27 @ 11:55 UTC (11 minutes ago) Visual Flight Rules
Wind Visibility Clouds
110° at 6 knots 10 miles
  • Clear skies
Temperatures Readings
Current 23°C / 73°F
Dewpoint 19°C / 66°F
Humidity 78%
Altimeter 29.84" Hg
Pressure 1010 hPa
Elevation 305
METAR KCWC 271155Z AUTO 11006KT 10SM CLR 23/19 A2984 RMK AO2 T02250190 10255 20222
Observed Flight Rules
May-27 @ 11:55 UTC
(11 minutes ago)
VFR
Wind Visibility
110° at 6 knots 10 miles
Clouds
  • Clear skies
Temperature Dewpoint
23°C / 73°F 19°C / 66°F
Humidity Altimeter Pressure
78% 29.84" Hg 1010 hPa